Time;durP1;ratioP1;P1;durP2;ratioP2;P2;SDS_P1;SDS_P2;PMS_P1;PMS_P2;Temp;Humidity;BMP_temperature;BMP_pressure;BME280_temperature;BME280_humidity;BME280_pressure;Samples;Min_cycle;Max_cycle;Signal;HPM_P1;HPM_P2
2022/06/15 00:01:12;;;;;;;2.27;2.07;;;15.00;99.90;;;;;;5075298;28;20395;-81
2022/06/15 00:03:38;;;;;;;13.40;2.53;;;14.90;99.90;;;;;;5076301;28;20191;-81
2022/06/15 00:06:06;;;;;;;4.30;1.97;;;15.00;99.90;;;;;;5076761;28;20445;-82
2022/06/15 00:08:32;;;;;;;4.47;2.00;;;14.80;99.90;;;;;;5076211;28;20866;-83
2022/06/15 00:11:04;;;;;;;3.00;2.17;;;14.80;99.90;;;;;;5076511;28;20493;-82
2022/06/15 00:13:29;;;;;;;4.50;2.20;;;14.70;99.90;;;;;;5069775;28;20568;-82
2022/06/15 00:15:55;;;;;;;4.87;2.40;;;14.70;99.90;;;;;;5074634;28;20448;-82
2022/06/15 00:18:21;;;;;;;7.17;2.10;;;14.60;99.90;;;;;;5074768;28;20195;-82
2022/06/15 00:20:46;;;;;;;3.80;2.30;;;14.60;99.90;;;;;;5076341;28;20634;-82
2022/06/15 00:23:12;;;;;;;3.47;2.37;;;14.50;99.90;;;;;;5074559;28;20662;-81
2022/06/15 00:25:37;;;;;;;2.67;2.13;;;14.50;99.90;;;;;;5075684;28;20175;-81
2022/06/15 00:28:03;;;;;;;10.33;2.60;;;14.60;99.90;;;;;;5075361;28;20238;-81
2022/06/15 00:30:29;;;;;;;3.13;2.27;;;14.40;99.90;;;;;;5076115;28;20179;-81
2022/06/15 00:32:54;;;;;;;5.77;2.63;;;14.40;99.90;;;;;;5075326;28;20573;-81
2022/06/15 00:35:20;;;;;;;9.30;2.10;;;14.30;99.90;;;;;;5062633;28;20206;-82
2022/06/15 00:37:46;;;;;;;3.17;2.23;;;14.30;99.90;;;;;;5084184;28;20638;-82
2022/06/15 00:40:12;;;;;;;5.50;2.40;;;14.30;99.90;;;;;;5069509;28;20665;-82
2022/06/15 00:42:37;;;;;;;4.50;2.13;;;14.20;99.90;;;;;;5075476;28;20232;-82
2022/06/15 00:45:03;;;;;;;2.87;2.27;;;14.20;99.90;;;;;;5074317;28;20179;-82
2022/06/15 00:47:35;;;;;;;6.73;2.10;;;14.20;99.90;;;;;;5075644;28;20543;-82
2022/06/15 00:50:09;;;;;;;4.10;2.20;;;14.20;99.90;;;;;;5075273;28;20969;-82
2022/06/15 00:52:44;;;;;;;3.80;2.17;;;14.20;99.90;;;;;;5075374;28;20413;-82
2022/06/15 00:55:18;;;;;;;10.27;2.37;;;14.10;99.90;;;;;;5074794;28;20449;-81
2022/06/15 00:57:44;;;;;;;6.80;2.40;;;14.10;99.90;;;;;;5075557;28;20885;-82
2022/06/15 01:00:12;;;;;;;6.53;2.40;;;14.10;99.90;;;;;;5074852;28;20432;-81
2022/06/15 01:02:38;;;;;;;4.33;2.23;;;14.10;99.90;;;;;;5074097;28;20227;-81
2022/06/15 01:05:07;;;;;;;2.60;1.97;;;14.10;99.90;;;;;;5075123;28;20805;-81
2022/06/15 01:07:48;;;;;;;2.90;2.10;;;14.10;99.90;;;;;;5075723;28;20417;-82
2022/06/15 01:10:22;;;;;;;9.73;2.57;;;14.10;99.90;;;;;;5075041;28;20391;-83
2022/06/15 01:13:21;;;;;;;3.47;2.47;;;14.20;99.90;;;;;;5075402;28;20839;-83
2022/06/15 01:16:10;;;;;;;3.30;2.17;;;14.10;99.90;;;;;;5074745;28;20437;-82
2022/06/15 01:19:00;;;;;;;2.73;2.37;;;14.10;99.90;;;;;;5064617;28;20433;-82
2022/06/15 01:21:50;;;;;;;2.80;2.23;;;14.10;99.90;;;;;;5074890;28;20396;-82
2022/06/15 01:24:42;;;;;;;2.67;2.30;;;14.10;99.90;;;;;;5074941;28;20457;-82
2022/06/15 01:27:49;;;;;;;4.77;2.20;;;14.10;99.90;;;;;;5079351;28;20589;-81
2022/06/15 01:30:48;;;;;;;2.10;2.00;;;14.10;99.90;;;;;;5033668;28;20922;-82
2022/06/15 01:33:39;;;;;;;3.23;2.57;;;14.10;99.90;;;;;;5032606;28;20489;-81
2022/06/15 01:36:04;;;;;;;3.70;1.90;;;14.10;99.90;;;;;;5042027;28;20445;-82
2022/06/15 01:38:39;;;;;;;3.63;2.10;;;14.10;99.90;;;;;;5038845;28;20440;-82
2022/06/15 01:41:40;;;;;;;2.53;2.43;;;14.10;99.90;;;;;;5032546;28;20184;-83
2022/06/15 01:44:27;;;;;;;7.90;2.53;;;14.10;99.90;;;;;;4967651;28;20441;-82
2022/06/15 01:46:53;;;;;;;3.83;2.20;;;14.10;99.90;;;;;;4987128;28;20515;-82
2022/06/15 01:49:30;;;;;;;2.00;1.83;;;14.10;99.90;;;;;;4987237;28;20436;-82
2022/06/15 01:51:59;;;;;;;6.73;2.03;;;14.10;99.90;;;;;;4976993;28;20856;-82
2022/06/15 01:54:32;;;;;;;3.70;2.30;;;14.10;99.90;;;;;;4987912;28;20670;-82
2022/06/15 01:57:02;;;;;;;4.17;2.13;;;14.10;99.90;;;;;;4988435;28;20430;-83
2022/06/15 01:59:35;;;;;;;4.47;2.10;;;14.10;99.90;;;;;;4983097;28;20429;-83
2022/06/15 02:02:45;;;;;;;5.80;2.37;;;14.10;99.90;;;;;;4992663;28;20922;-82
2022/06/15 02:05:29;;;;;;;12.23;2.10;;;14.10;99.90;;;;;;4945743;28;20500;-83
2022/06/15 02:08:02;;;;;;;5.53;2.23;;;14.00;99.90;;;;;;4967378;28;20514;-82
2022/06/15 02:10:36;;;;;;;3.10;2.10;;;14.00;99.90;;;;;;4973198;28;20443;-81
2022/06/15 02:13:11;;;;;;;6.13;2.27;;;14.00;99.90;;;;;;4971550;28;20964;-82
2022/06/15 02:15:41;;;;;;;3.73;1.93;;;14.00;99.90;;;;;;4972925;28;20465;-82
2022/06/15 02:18:10;;;;;;;7.20;2.50;;;14.00;99.90;;;;;;4956180;28;20412;-82
2022/06/15 02:20:41;;;;;;;2.10;1.90;;;14.00;99.90;;;;;;4975058;28;20878;-82
2022/06/15 02:23:11;;;;;;;2.60;1.97;;;14.00;99.90;;;;;;5030555;28;20402;-82
2022/06/15 02:25:40;;;;;;;2.97;2.10;;;14.00;99.90;;;;;;5031426;28;20426;-82
2022/06/15 02:28:06;;;;;;;5.17;2.33;;;14.10;99.90;;;;;;5031320;28;20435;-82
2022/06/15 02:30:32;;;;;;;5.13;2.03;;;13.90;99.90;;;;;;5011676;28;20402;-82
2022/06/15 02:33:26;;;;;;;3.60;1.83;;;13.90;99.90;;;;;;5025024;28;20413;-82
2022/06/15 02:35:52;;;;;;;3.50;2.50;;;13.90;99.90;;;;;;5043896;28;20426;-82
2022/06/15 02:38:18;;;;;;;3.10;2.00;;;13.90;99.90;;;;;;5070394;28;20395;-83
2022/06/15 02:40:43;;;;;;;3.20;1.90;;;13.90;99.90;;;;;;5073174;28;20779;-83
2022/06/15 02:43:11;;;;;;;1.93;1.83;;;13.80;99.90;;;;;;5072212;28;20185;-83
2022/06/15 02:45:39;;;;;;;3.63;2.63;;;13.90;99.90;;;;;;5073301;28;20187;-83
2022/06/15 02:48:07;;;;;;;4.07;2.70;;;13.80;99.90;;;;;;5072826;28;20514;-83
2022/06/15 02:50:41;;;;;;;2.50;2.30;;;13.90;99.90;;;;;;5072017;28;20512;-83
2022/06/15 02:53:12;;;;;;;3.97;2.30;;;13.90;99.90;;;;;;5072099;28;21010;-82
2022/06/15 02:55:39;;;;;;;3.43;2.43;;;13.90;99.90;;;;;;5072808;28;20435;-83
2022/06/15 02:58:27;;;;;;;2.73;2.30;;;13.90;99.90;;;;;;5073295;28;20502;-83
2022/06/15 03:00:54;;;;;;;5.30;3.33;;;13.90;99.90;;;;;;5073102;28;20396;-83
2022/06/15 03:03:22;;;;;;;7.43;2.83;;;13.90;99.90;;;;;;5088729;28;20407;-82
2022/06/15 03:05:51;;;;;;;9.03;2.40;;;13.90;99.90;;;;;;5071752;28;20426;-83
2022/06/15 03:08:19;;;;;;;2.50;2.30;;;13.90;99.90;;;;;;5073485;28;20765;-82
2022/06/15 03:10:45;;;;;;;2.83;2.30;;;13.80;99.90;;;;;;5072878;28;20429;-83
2022/06/15 03:13:10;;;;;;;7.43;2.90;;;13.80;99.90;;;;;;5071468;28;20462;-82
2022/06/15 03:15:37;;;;;;;3.00;2.50;;;13.80;99.90;;;;;;5072386;28;20447;-82
2022/06/15 03:18:03;;;;;;;6.33;2.67;;;13.80;99.90;;;;;;5072273;28;20190;-82
2022/06/15 03:20:30;;;;;;;3.53;2.47;;;13.80;99.90;;;;;;5072609;28;20468;-82
2022/06/15 03:22:55;;;;;;;4.30;2.47;;;13.80;99.90;;;;;;5088479;28;20429;-82
2022/06/15 03:25:22;;;;;;;4.50;2.97;;;13.80;99.90;;;;;;5071420;28;20441;-82
2022/06/15 03:27:48;;;;;;;9.60;3.17;;;13.80;99.90;;;;;;5072700;28;20943;-82
2022/06/15 03:30:18;;;;;;;2.80;2.27;;;13.80;99.90;;;;;;5072625;28;20400;-82
2022/06/15 03:32:44;;;;;;;2.47;2.20;;;13.80;99.90;;;;;;5072727;28;20824;-82
2022/06/15 03:35:11;;;;;;;4.40;2.60;;;13.80;99.90;;;;;;5071172;28;20531;-82
2022/06/15 03:37:38;;;;;;;6.20;2.80;;;13.80;99.90;;;;;;5072528;28;20322;-82
2022/06/15 03:40:08;;;;;;;3.13;2.20;;;13.80;99.90;;;;;;5073071;28;20424;-82
2022/06/15 03:42:34;;;;;;;4.67;2.20;;;13.80;99.90;;;;;;5072560;28;20396;-82
2022/06/15 03:45:00;;;;;;;2.90;1.83;;;13.80;99.90;;;;;;5071698;28;20817;-83
2022/06/15 03:47:26;;;;;;;6.10;2.40;;;13.80;99.90;;;;;;5066538;28;20424;-82
2022/06/15 03:49:54;;;;;;;6.00;2.90;;;13.80;99.90;;;;;;5046681;28;20182;-83
2022/06/15 03:52:26;;;;;;;3.03;2.60;;;13.80;99.90;;;;;;5065303;28;20811;-82
2022/06/15 03:54:52;;;;;;;5.70;2.93;;;13.80;99.90;;;;;;5071253;28;20471;-82
2022/06/15 03:57:19;;;;;;;3.50;2.70;;;13.80;99.90;;;;;;5075527;28;20721;-82
2022/06/15 03:59:47;;;;;;;5.67;2.20;;;13.80;99.90;;;;;;5073094;28;20399;-82
2022/06/15 04:02:13;;;;;;;4.00;2.80;;;13.90;99.90;;;;;;5071767;28;20961;-82
2022/06/15 04:04:39;;;;;;;2.77;2.57;;;13.90;99.90;;;;;;5055152;28;20430;-82
2022/06/15 04:08:34;;;;;;;8.30;2.50;;;13.90;99.90;;;;;;5073331;28;20425;-82
2022/06/15 04:09:52;;;;;;;4.37;2.60;;;13.90;99.90;;;;;;5077871;28;20557;-83
2022/06/15 04:12:18;;;;;;;3.50;2.50;;;13.90;99.90;;;;;;5092071;28;20476;-82
2022/06/15 04:14:43;;;;;;;3.57;2.50;;;13.90;99.90;;;;;;5078523;28;20521;-83
2022/06/15 04:17:11;;;;;;;4.90;3.30;;;13.90;99.90;;;;;;5081079;28;20212;-83
2022/06/15 04:19:36;;;;;;;2.77;2.57;;;13.90;99.90;;;;;;5077673;28;20187;-82
2022/06/15 04:22:02;;;;;;;3.93;2.73;;;14.00;99.90;;;;;;5081413;28;20896;-83
2022/06/15 04:24:30;;;;;;;8.63;2.70;;;14.00;99.90;;;;;;5078844;28;20189;-82
2022/06/15 04:26:57;;;;;;;7.40;3.23;;;14.00;99.90;;;;;;5090956;28;20399;-83
2022/06/15 04:29:24;;;;;;;8.33;3.17;;;14.00;99.90;;;;;;5082511;28;20390;-84
2022/06/15 04:31:50;;;;;;;7.70;3.13;;;14.00;99.90;;;;;;5084144;28;20417;-84
2022/06/15 04:34:16;;;;;;;5.70;2.30;;;14.10;99.90;;;;;;5074643;28;20464;-83
2022/06/15 04:36:43;;;;;;;3.53;2.60;;;14.10;99.90;;;;;;5087624;28;20186;-83
2022/06/15 04:39:11;;;;;;;6.50;2.83;;;14.20;99.90;;;;;;5081256;28;20429;-83
2022/06/15 04:41:39;;;;;;;7.00;3.07;;;14.30;99.90;;;;;;5084091;28;20376;-82
2022/06/15 04:44:06;;;;;;;9.47;2.60;;;14.30;99.90;;;;;;5084666;28;20411;-82
2022/06/15 04:46:32;;;;;;;3.40;2.53;;;14.30;99.90;;;;;;5082775;28;20412;-82
2022/06/15 04:48:58;;;;;;;7.67;2.60;;;14.40;99.90;;;;;;5073641;28;20438;-83
2022/06/15 04:51:26;;;;;;;2.80;2.47;;;14.50;99.90;;;;;;5061342;28;20471;-82
2022/06/15 04:53:53;;;;;;;5.03;2.30;;;14.50;99.90;;;;;;5074970;28;20203;-83
2022/06/15 04:56:25;;;;;;;8.83;2.43;;;14.60;99.90;;;;;;5075226;28;20403;-83
2022/06/15 04:58:51;;;;;;;9.73;3.00;;;14.70;99.90;;;;;;5074190;28;20424;-83
2022/06/15 05:01:16;;;;;;;4.97;2.37;;;14.80;99.90;;;;;;5074188;28;20756;-83
2022/06/15 05:03:43;;;;;;;3.50;2.57;;;14.90;99.90;;;;;;5060659;28;20265;-83
2022/06/15 05:06:32;;;;;;;5.37;2.73;;;15.00;99.90;;;;;;5072375;28;20236;-83
2022/06/15 05:08:58;;;;;;;15.63;3.23;;;15.10;99.90;;;;;;5065160;28;20400;-82
2022/06/15 05:11:26;;;;;;;5.90;2.63;;;15.20;99.90;;;;;;5074945;28;21563;-81
2022/06/15 05:13:53;;;;;;;9.37;2.70;;;15.30;99.90;;;;;;5068998;28;20558;-81
2022/06/15 05:16:20;;;;;;;4.30;2.20;;;15.40;99.90;;;;;;5063642;28;20439;-81
2022/06/15 05:18:48;;;;;;;3.93;2.60;;;15.50;99.90;;;;;;5074669;28;20463;-83
2022/06/15 05:21:24;;;;;;;3.20;2.10;;;15.70;99.90;;;;;;5059870;28;20432;-81
2022/06/15 05:23:50;;;;;;;2.13;1.93;;;15.80;99.90;;;;;;5075455;28;20386;-81
2022/06/15 05:26:16;;;;;;;9.40;2.70;;;15.90;99.90;;;;;;5074507;28;20900;-81
2022/06/15 05:28:46;;;;;;;14.60;3.63;;;16.10;99.90;;;;;;5074569;28;20479;-81
2022/06/15 05:31:18;;;;;;;7.70;2.50;;;16.30;99.90;;;;;;5074369;28;20428;-81
2022/06/15 05:33:44;;;;;;;5.27;2.67;;;16.40;99.90;;;;;;5071652;28;20449;-81
2022/06/15 05:36:15;;;;;;;4.17;2.73;;;16.50;99.90;;;;;;5074562;28;20819;-81
2022/06/15 05:38:41;;;;;;;9.20;2.43;;;16.70;99.90;;;;;;5079556;28;20960;-82
2022/06/15 05:41:08;;;;;;;6.37;2.37;;;16.80;99.90;;;;;;5074215;28;20774;-81
2022/06/15 05:43:37;;;;;;;4.60;2.60;;;16.90;99.90;;;;;;5073301;28;20418;-81
2022/06/15 05:46:12;;;;;;;5.10;2.30;;;17.00;99.90;;;;;;5073253;28;20437;-81
2022/06/15 05:48:42;;;;;;;8.03;2.80;;;17.10;99.90;;;;;;5074435;28;20415;-80
2022/06/15 05:51:08;;;;;;;13.57;2.43;;;17.30;99.90;;;;;;5074589;28;20770;-80
2022/06/15 05:53:34;;;;;;;10.23;2.67;;;17.40;99.90;;;;;;5074765;28;20385;-83
2022/06/15 05:56:01;;;;;;;5.40;2.10;;;17.50;99.90;;;;;;5073048;28;20539;-84
2022/06/15 05:58:27;;;;;;;14.90;3.30;;;17.60;99.90;;;;;;5073042;28;20268;-83
2022/06/15 06:00:53;;;;;;;8.20;2.77;;;17.80;99.90;;;;;;5074186;28;20502;-84
2022/06/15 06:03:18;;;;;;;6.53;2.23;;;17.90;99.90;;;;;;5064520;28;20188;-84
2022/06/15 06:05:44;;;;;;;7.47;3.10;;;18.00;99.90;;;;;;5072722;28;20188;-84
2022/06/15 06:08:09;;;;;;;3.13;2.30;;;18.10;99.90;;;;;;5073396;28;20196;-84
2022/06/15 06:10:36;;;;;;;6.40;2.00;;;18.30;99.90;;;;;;5073205;28;20746;-81
2022/06/15 06:13:01;;;;;;;23.47;4.60;;;18.40;99.90;;;;;;5074099;28;20255;-81
2022/06/15 06:15:27;;;;;;;11.20;3.17;;;18.40;99.90;;;;;;5072311;28;20493;-81
2022/06/15 06:17:53;;;;;;;5.67;2.83;;;18.60;99.90;;;;;;5072908;28;20188;-81
2022/06/15 06:20:18;;;;;;;12.07;2.77;;;18.70;99.90;;;;;;5073756;28;20188;-81
2022/06/15 06:22:44;;;;;;;16.40;2.90;;;18.70;99.90;;;;;;5073519;28;20182;-81
2022/06/15 06:25:10;;;;;;;19.10;2.87;;;18.90;99.90;;;;;;5073880;28;20671;-81
2022/06/15 06:27:36;;;;;;;9.27;2.70;;;19.00;99.90;;;;;;5073235;28;20186;-81
2022/06/15 06:30:02;;;;;;;8.20;2.57;;;19.00;99.90;;;;;;5071744;28;20427;-81
2022/06/15 06:32:28;;;;;;;10.30;2.80;;;19.20;99.90;;;;;;5067588;28;20181;-80
2022/06/15 06:34:55;;;;;;;8.37;2.40;;;19.40;99.90;;;;;;5073286;28;20457;-80
2022/06/15 06:37:22;;;;;;;9.33;2.40;;;19.50;99.90;;;;;;5066724;28;20645;-80
2022/06/15 06:39:52;;;;;;;7.53;2.47;;;19.60;99.90;;;;;;5072888;28;20443;-80
2022/06/15 06:42:17;;;;;;;8.20;2.07;;;19.80;99.90;;;;;;5075782;28;20981;-80
2022/06/15 06:44:43;;;;;;;6.10;2.67;;;19.90;99.90;;;;;;5073068;28;20455;-80
2022/06/15 06:47:09;;;;;;;4.00;2.67;;;20.00;99.90;;;;;;5073045;28;20210;-80
2022/06/15 06:49:35;;;;;;;12.43;2.80;;;20.20;99.90;;;;;;5072999;28;20185;-81
2022/06/15 06:52:00;;;;;;;8.73;2.70;;;20.30;99.90;;;;;;5071790;28;20211;-81
2022/06/15 06:54:26;;;;;;;6.13;2.63;;;20.40;99.90;;;;;;5073351;28;20908;-81
2022/06/15 06:56:53;;;;;;;7.20;2.70;;;20.50;99.90;;;;;;5072942;28;20180;-80
2022/06/15 06:59:19;;;;;;;4.77;2.20;;;20.60;99.90;;;;;;5072953;28;20532;-80
2022/06/15 07:01:46;;;;;;;4.10;2.43;;;20.80;99.90;;;;;;5071481;28;20422;-81
2022/06/15 07:04:14;;;;;;;4.53;2.03;;;20.90;99.90;;;;;;5073003;28;20416;-81
2022/06/15 07:06:40;;;;;;;5.87;2.87;;;21.00;99.90;;;;;;5072723;28;20417;-81
2022/06/15 07:09:06;;;;;;;3.70;2.37;;;21.00;99.90;;;;;;5073568;28;20790;-82
2022/06/15 07:11:31;;;;;;;5.77;2.60;;;21.20;99.90;;;;;;5071994;28;20470;-86
2022/06/15 07:13:57;;;;;;;6.57;2.73;;;21.30;99.90;;;;;;5072206;28;20200;-86
2022/06/15 07:16:23;;;;;;;5.87;2.67;;;21.50;99.90;;;;;;5071661;28;20180;-82
2022/06/15 07:18:49;;;;;;;7.97;2.50;;;21.70;99.90;;;;;;5072791;28;20192;-85
2022/06/15 07:21:22;;;;;;;8.60;2.80;;;21.80;99.90;;;;;;5072455;28;20486;-79
2022/06/15 07:23:50;;;;;;;5.90;2.80;;;21.90;99.90;;;;;;5071594;28;20184;-83
2022/06/15 07:26:20;;;;;;;6.43;3.10;;;22.00;99.90;;;;;;5073140;28;20450;-88
2022/06/15 07:28:46;;;;;;;4.23;2.57;;;22.10;99.90;;;;;;5072931;28;20800;-82
2022/06/15 07:31:28;;;;;;;5.93;2.27;;;22.30;99.90;;;;;;5070450;28;20764;-77
2022/06/15 07:33:54;;;;;;;5.00;2.60;;;22.40;99.90;;;;;;5070670;28;20455;-78
2022/06/15 07:36:23;;;;;;;5.30;2.40;;;22.60;99.90;;;;;;5072587;28;20770;-77
2022/06/15 07:38:49;;;;;;;8.00;2.87;;;22.70;99.90;;;;;;5079541;28;20917;-78
2022/06/15 07:41:14;;;;;;;6.07;2.93;;;22.80;99.90;;;;;;5072905;28;20424;-75
2022/06/15 07:43:40;;;;;;;3.57;2.87;;;22.80;99.90;;;;;;5071931;28;20988;-75
2022/06/15 07:46:07;;;;;;;10.37;3.30;;;22.90;99.90;;;;;;5072823;28;20174;-75
2022/06/15 07:51:34;;;;;;;4.23;2.23;;;23.20;99.90;;;;;;5069741;28;20412;-75
2022/06/15 07:54:02;;;;;;;6.67;2.67;;;23.30;99.90;;;;;;5057879;28;20552;-75
2022/06/15 07:56:28;;;;;;;9.57;3.00;;;23.40;99.90;;;;;;5059065;28;20436;-75
2022/06/15 07:58:54;;;;;;;4.73;2.77;;;23.50;99.90;;;;;;5069082;28;20425;-75
2022/06/15 08:01:21;;;;;;;3.27;2.63;;;23.60;99.90;;;;;;5068810;28;21199;-74
2022/06/15 08:03:46;;;;;;;6.13;2.70;;;23.70;99.90;;;;;;5070664;28;20182;-75
2022/06/15 08:06:13;;;;;;;6.20;2.73;;;23.90;99.90;;;;;;5072777;28;20471;-75
2022/06/15 08:08:40;;;;;;;8.00;2.67;;;23.90;99.90;;;;;;5072663;28;20212;-75
2022/06/15 08:11:06;;;;;;;6.73;2.70;;;24.00;99.90;;;;;;5073417;28;20889;-78
2022/06/15 08:13:31;;;;;;;9.50;3.10;;;24.10;99.90;;;;;;5072720;28;20440;-78
2022/06/15 08:15:58;;;;;;;2.90;2.30;;;24.20;99.90;;;;;;5072213;28;20177;-79
2022/06/15 08:18:27;;;;;;;8.93;2.47;;;24.30;99.90;;;;;;5072377;28;20198;-78
2022/06/15 08:21:03;;;;;;;7.50;2.67;;;24.50;99.90;;;;;;5072712;28;20433;-78
2022/06/15 08:23:32;;;;;;;8.20;2.30;;;24.60;99.90;;;;;;5072578;28;20426;-78
2022/06/15 08:26:01;;;;;;;13.50;2.97;;;24.60;99.90;;;;;;5072571;28;20431;-77
2022/06/15 08:28:32;;;;;;;5.17;3.30;;;24.80;99.90;;;;;;5072234;28;20432;-78
2022/06/15 08:30:59;;;;;;;6.57;2.93;;;24.80;99.90;;;;;;5072742;28;20515;-78
2022/06/15 08:33:25;;;;;;;5.13;2.93;;;25.00;99.90;;;;;;5072745;28;20474;-78
2022/06/15 08:35:51;;;;;;;2.90;2.70;;;25.10;99.90;;;;;;5072347;28;20463;-78
2022/06/15 08:38:19;;;;;;;5.13;2.70;;;25.10;99.90;;;;;;5072922;28;20784;-78
2022/06/15 08:40:49;;;;;;;5.03;2.60;;;25.30;99.90;;;;;;5071688;28;20840;-75
2022/06/15 08:43:31;;;;;;;7.33;3.27;;;25.40;99.90;;;;;;5072417;28;20424;-75
2022/06/15 08:46:18;;;;;;;2.67;2.43;;;25.50;99.90;;;;;;5072315;28;20408;-75
2022/06/15 08:49:10;;;;;;;11.03;2.70;;;25.60;99.90;;;;;;5067188;28;20421;-75
2022/06/15 08:51:42;;;;;;;5.13;2.80;;;25.80;99.90;;;;;;5073926;28;20423;-76
2022/06/15 08:54:52;;;;;;;6.10;2.63;;;25.90;99.90;;;;;;5083557;28;20463;-75
2022/06/15 08:57:24;;;;;;;7.00;2.70;;;26.00;99.90;;;;;;4993987;28;20555;-79
2022/06/15 08:59:59;;;;;;;5.67;2.90;;;26.00;99.90;;;;;;5010604;28;20891;-78
2022/06/15 09:02:49;;;;;;;3.97;2.33;;;26.10;99.90;;;;;;5013067;28;20829;-78
2022/06/15 09:05:33;;;;;;;6.37;2.93;;;26.20;99.90;;;;;;5013060;28;20796;-78
2022/06/15 09:08:29;;;;;;;6.70;2.80;;;26.40;99.90;;;;;;5013077;28;20421;-78
2022/06/15 09:11:02;;;;;;;8.07;2.70;;;26.60;99.90;;;;;;5013293;28;20418;-78
2022/06/15 09:13:29;;;;;;;6.27;2.90;;;26.60;99.90;;;;;;5012749;28;20435;-78
2022/06/15 09:16:21;;;;;;;9.37;3.27;;;26.70;99.90;;;;;;4994588;28;20581;-77
2022/06/15 09:19:03;;;;;;;3.80;2.83;;;26.80;99.90;;;;;;5013176;28;21003;-79
2022/06/15 09:21:49;;;;;;;16.30;2.90;;;26.90;99.90;;;;;;5020997;28;20449;-79
2022/06/15 09:24:24;;;;;;;6.53;3.23;;;27.10;99.90;;;;;;5017197;28;20432;-78
2022/06/15 09:27:00;;;;;;;4.40;2.57;;;27.30;99.90;;;;;;5016171;28;20467;-77
2022/06/15 09:29:52;;;;;;;5.10;2.90;;;27.50;99.90;;;;;;5013766;28;20618;-78
2022/06/15 09:32:30;;;;;;;4.90;2.87;;;27.60;99.90;;;;;;5029768;28;20422;-78
2022/06/15 09:35:17;;;;;;;4.47;2.90;;;27.80;99.90;;;;;;5075260;28;20457;-78
2022/06/15 09:38:18;;;;;;;5.03;2.87;;;27.80;99.90;;;;;;5064795;28;20954;-78
2022/06/15 09:40:57;;;;;;;3.33;2.77;;;27.90;99.90;;;;;;5065795;28;20422;-77
2022/06/15 09:43:45;;;;;;;4.57;2.53;;;27.90;99.90;;;;;;5069283;28;20422;-77
2022/06/15 09:46:38;;;;;;;6.47;2.83;;;28.00;99.90;;;;;;5071979;28;20915;-78
2022/06/15 09:49:36;;;;;;;5.73;2.97;;;28.20;99.90;;;;;;5074596;28;20423;-77
2022/06/15 09:52:41;;;;;;;7.57;3.13;;;28.30;99.90;;;;;;5074699;28;20421;-78
2022/06/15 09:55:23;;;;;;;5.27;3.17;;;28.40;99.90;;;;;;5085423;28;20464;-78
2022/06/15 09:57:54;;;;;;;4.73;3.10;;;28.40;99.90;;;;;;5064665;28;20440;-75
2022/06/15 10:00:20;;;;;;;5.17;2.80;;;28.60;99.90;;;;;;5074085;28;20922;-75
2022/06/15 10:02:53;;;;;;;4.27;3.00;;;28.70;99.90;;;;;;5071326;28;20416;-75
2022/06/15 10:05:30;;;;;;;6.67;3.23;;;28.80;99.90;;;;;;5068926;28;20950;-75
2022/06/15 10:07:59;;;;;;;4.10;3.10;;;28.80;99.90;;;;;;5072704;28;20462;-75
2022/06/15 10:10:32;;;;;;;8.27;3.33;;;28.80;99.90;;;;;;5075026;28;20423;-75
2022/06/15 10:13:30;;;;;;;4.30;2.70;;;28.80;99.90;;;;;;5074642;28;20436;-79
2022/06/15 10:16:35;;;;;;;20.57;3.40;;;28.90;99.90;;;;;;5072927;28;21013;-78
2022/06/15 10:19:08;;;;;;;5.67;3.10;;;28.90;99.90;;;;;;5054481;28;20439;-73
2022/06/15 10:21:36;;;;;;;4.33;2.80;;;29.00;99.90;;;;;;5074211;28;20424;-73
2022/06/15 10:24:18;;;;;;;6.60;3.50;;;29.10;99.90;;;;;;5073216;28;20450;-73
2022/06/15 10:26:51;;;;;;;9.30;3.37;;;29.20;99.90;;;;;;5065371;28;20471;-72
2022/06/15 10:29:27;;;;;;;8.33;3.10;;;29.30;99.90;;;;;;5075937;28;20429;-72
2022/06/15 10:32:26;;;;;;;3.07;2.80;;;29.50;99.90;;;;;;5081330;28;21035;-72
2022/06/15 10:34:56;;;;;;;6.50;3.33;;;29.60;99.90;;;;;;5039240;28;20467;-72
2022/06/15 10:37:58;;;;;;;10.73;3.27;;;29.50;99.90;;;;;;5038486;28;20424;-72
2022/06/15 10:40:31;;;;;;;12.87;3.07;;;29.60;99.90;;;;;;4992009;28;20428;-72
2022/06/15 10:43:06;;;;;;;4.77;3.10;;;29.70;99.90;;;;;;4992900;28;20439;-72
2022/06/15 10:45:34;;;;;;;4.50;2.93;;;29.80;99.90;;;;;;4988094;28;20437;-72
2022/06/15 10:48:17;;;;;;;4.17;3.20;;;29.70;99.90;;;;;;4982530;28;20801;-72
2022/06/15 10:51:05;;;;;;;10.63;3.63;;;29.50;99.90;;;;;;4982620;28;20534;-72
2022/06/15 10:53:42;;;;;;;4.53;2.77;;;29.60;99.90;;;;;;4984698;28;20428;-72
2022/06/15 11:02:42;;;;;;;6.70;3.20;;;30.10;99.90;;;;;;4985196;28;20451;-75
2022/06/15 11:05:15;;;;;;;6.43;3.10;;;30.10;99.90;;;;;;4991682;28;20474;-74
2022/06/15 11:07:58;;;;;;;4.80;2.97;;;30.30;99.90;;;;;;4982041;28;20447;-74
2022/06/15 11:10:34;;;;;;;5.13;3.27;;;30.40;99.90;;;;;;5000276;28;20453;-75
2022/06/15 11:13:01;;;;;;;4.07;3.00;;;30.60;99.90;;;;;;4999495;28;20451;-72
2022/06/15 11:18:01;;;;;;;7.80;2.87;;;30.70;99.90;;;;;;5027691;28;20483;-73
2022/06/15 11:18:39;;;;;;;7.10;2.73;;;30.70;99.90;;;;;;5063809;28;20532;-73
2022/06/15 11:21:22;;;;;;;6.30;2.90;;;30.70;99.90;;;;;;5086684;28;20426;-72
2022/06/15 11:23:56;;;;;;;4.37;2.93;;;30.80;99.90;;;;;;5085476;28;20401;-72
2022/06/15 11:29:43;;;;;;;3.80;2.80;;;31.20;99.90;;;;;;5067158;28;20391;-73
2022/06/15 11:32:46;;;;;;;6.27;2.83;;;31.40;99.90;;;;;;5076106;28;20461;-73
2022/06/15 11:35:12;;;;;;;4.80;3.10;;;31.60;99.90;;;;;;5059709;28;20454;-73
2022/06/15 11:38:09;;;;;;;3.57;3.10;;;31.70;99.90;;;;;;5080215;28;20458;-73
2022/06/15 11:40:53;;;;;;;3.47;2.80;;;31.90;99.90;;;;;;5071729;28;20179;-73
2022/06/15 11:43:23;;;;;;;3.10;2.80;;;31.80;99.90;;;;;;5082512;28;20447;-73
2022/06/15 11:46:02;;;;;;;4.93;2.77;;;31.70;99.90;;;;;;5073292;28;20422;-72
2022/06/15 11:48:33;;;;;;;7.83;3.27;;;31.70;99.90;;;;;;5070579;28;20482;-73
2022/06/15 11:51:29;;;;;;;4.70;2.83;;;31.80;99.90;;;;;;5072102;28;20437;-73
2022/06/15 11:54:32;;;;;;;4.90;2.90;;;32.00;99.90;;;;;;5060881;28;20772;-89
2022/06/15 11:57:30;;;;;;;6.13;2.80;;;32.20;99.90;;;;;;5073747;28;20428;-81
2022/06/15 12:00:18;;;;;;;6.17;3.17;;;32.30;99.90;;;;;;5058584;28;20487;-80
2022/06/15 12:03:20;;;;;;;3.13;2.83;;;32.30;99.90;;;;;;5053002;28;20403;-81
2022/06/15 12:06:06;;;;;;;9.93;3.17;;;32.30;99.90;;;;;;5052003;28;20422;-81
2022/06/15 12:08:59;;;;;;;4.33;3.00;;;32.50;99.90;;;;;;5059218;28;20427;-80
2022/06/15 12:15:00;;;;;;;3.03;2.70;;;32.70;99.90;;;;;;5058902;28;20476;-80
2022/06/15 12:17:38;;;;;;;44.13;3.27;;;32.90;99.90;;;;;;5072119;28;20413;-81
2022/06/15 12:20:36;;;;;;;7.33;2.80;;;32.90;99.90;;;;;;5062679;28;20965;-81
2022/06/15 12:23:01;;;;;;;3.27;2.77;;;32.90;99.90;;;;;;5072665;28;20555;-87
2022/06/15 12:25:54;;;;;;;4.30;2.53;;;32.80;99.90;;;;;;5071804;28;20515;-86
2022/06/15 12:28:55;;;;;;;10.00;3.83;;;32.80;99.90;;;;;;5057711;28;20643;-83
2022/06/15 12:31:53;;;;;;;5.97;2.97;;;32.80;99.90;;;;;;5077441;28;20432;-81
2022/06/15 12:34:48;;;;;;;5.40;2.77;;;33.00;99.90;;;;;;5061812;28;20823;-81
2022/06/15 12:37:27;;;;;;;2.70;2.50;;;32.80;99.90;;;;;;5059758;28;20416;-81
2022/06/15 12:40:36;;;;;;;4.80;2.70;;;32.80;99.90;;;;;;5072631;28;20479;-81
2022/06/15 12:43:30;;;;;;;9.43;2.70;;;33.00;99.90;;;;;;5063876;28;20412;-85
2022/06/15 12:46:07;;;;;;;7.87;2.87;;;32.80;99.90;;;;;;5070707;28;20421;-85
2022/06/15 12:48:49;;;;;;;6.20;2.60;;;32.80;99.90;;;;;;5071549;28;20452;-84
2022/06/15 12:51:39;;;;;;;4.50;2.93;;;32.80;99.90;;;;;;5074827;28;20409;-84
2022/06/15 12:54:20;;;;;;;3.10;2.80;;;32.90;99.90;;;;;;5082874;28;20969;-84
2022/06/15 12:57:00;;;;;;;2.83;2.63;;;32.90;99.90;;;;;;5078355;28;20413;-85
2022/06/15 12:59:56;;;;;;;4.83;3.20;;;33.00;99.90;;;;;;5071886;28;20472;-85
2022/06/15 13:02:24;;;;;;;3.03;2.80;;;33.10;99.90;;;;;;5065159;28;20819;-85
2022/06/15 13:05:25;;;;;;;5.90;3.27;;;33.20;99.90;;;;;;5074780;28;20425;-85
2022/06/15 13:08:32;;;;;;;4.00;3.00;;;33.30;99.90;;;;;;5070108;28;20515;-84
2022/06/15 13:11:09;;;;;;;4.20;2.90;;;33.40;99.90;;;;;;5020432;28;20434;-84
2022/06/15 13:13:40;;;;;;;7.97;2.97;;;33.50;99.90;;;;;;5031594;28;20438;-85
2022/06/15 13:16:33;;;;;;;6.23;2.80;;;33.60;99.90;;;;;;5032652;28;20439;-83
2022/06/15 13:19:00;;;;;;;4.70;3.10;;;33.50;99.90;;;;;;5028060;28;20443;-83
2022/06/15 13:21:48;;;;;;;4.73;2.70;;;33.60;99.90;;;;;;5037009;28;20824;-83
2022/06/15 13:24:14;;;;;;;4.57;2.87;;;33.70;99.90;;;;;;5018349;28;20422;-83
2022/06/15 13:26:41;;;;;;;6.20;3.80;;;33.70;99.90;;;;;;5033373;28;20428;-84
2022/06/15 13:29:15;;;;;;;7.83;3.23;;;33.60;99.90;;;;;;5017090;28;20860;-89
2022/06/15 13:31:54;;;;;;;4.60;3.07;;;33.30;99.90;;;;;;5018022;28;20442;-89
2022/06/15 13:34:34;;;;;;;8.43;3.50;;;33.30;99.90;;;;;;5031681;28;20467;-89
2022/06/15 13:37:27;;;;;;;8.57;3.10;;;33.40;99.90;;;;;;5023932;28;20431;-88